Time;durP1;ratioP1;P1;durP2;ratioP2;P2;SDS_P1;SDS_P2;PMS_P1;PMS_P2;Temp;Humidity;BMP_temperature;BMP_pressure;BME280_temperature;BME280_humidity;BME280_pressure;Samples;Min_cycle;Max_cycle;Signal;HPM_P1;HPM_P2
2021/01/09 00:04:53;;;;;;;0.70;0.70;;;22.70;20.30;25.80;93746.00;;;;10398629;28;75361;-73
2021/01/09 00:09:53;;;;;;;0.77;0.77;;;22.70;20.30;25.80;93748.00;;;;10381753;28;74819;-73
2021/01/09 00:14:54;;;;;;;1.15;0.80;;;22.80;20.30;25.80;93747.00;;;;10380949;28;75103;-73
2021/01/09 00:19:55;;;;;;;1.52;1.00;;;22.70;20.30;25.80;93745.00;;;;10381057;28;75121;-73
2021/01/09 00:24:56;;;;;;;1.73;1.20;;;22.80;20.30;25.80;93733.00;;;;10399260;28;45389;-73
2021/01/09 00:29:57;;;;;;;2.03;1.10;;;22.70;20.30;25.80;93748.00;;;;10400140;28;45556;-73
2021/01/09 00:34:57;;;;;;;1.80;1.00;;;22.80;20.30;25.80;93752.00;;;;10397653;28;75498;-74
2021/01/09 00:39:58;;;;;;;1.35;1.10;;;22.80;20.30;25.80;93755.00;;;;10397500;28;74150;-74
2021/01/09 00:44:59;;;;;;;1.08;0.98;;;22.70;20.30;25.70;93737.00;;;;10381285;28;48075;-73
2021/01/09 00:50:00;;;;;;;1.58;0.90;;;22.70;20.30;25.80;93743.00;;;;10379974;28;75457;-73
2021/01/09 00:55:00;;;;;;;1.42;1.10;;;22.70;20.30;25.80;93753.00;;;;10396388;28;56949;-73
2021/01/09 01:00:04;;;;;;;1.58;0.90;;;22.80;20.30;25.80;93748.00;;;;10397408;28;61277;-73
2021/01/09 01:05:05;;;;;;;1.13;1.02;;;22.80;20.30;25.70;93744.00;;;;10397240;28;45605;-73
2021/01/09 01:10:07;;;;;;;1.17;0.80;;;22.70;20.30;25.80;93745.00;;;;10398236;28;45454;-73
2021/01/09 01:15:09;;;;;;;0.85;0.80;;;22.70;20.30;25.80;93739.00;;;;10380261;28;47182;-73
2021/01/09 01:20:11;;;;;;;1.52;0.80;;;22.80;20.30;25.80;93750.00;;;;10380234;28;56827;-73
2021/01/09 01:25:12;;;;;;;1.00;0.82;;;22.70;20.30;25.70;93746.00;;;;10379829;28;55790;-73
2021/01/09 01:30:14;;;;;;;1.10;0.80;;;22.70;20.20;25.70;93756.00;;;;10380019;28;48054;-73
2021/01/09 01:35:15;;;;;;;1.20;0.98;;;22.70;20.20;25.70;93755.00;;;;10379331;28;54648;-73
2021/01/09 01:40:15;;;;;;;1.35;0.88;;;22.70;20.20;25.80;93744.00;;;;10395268;28;75622;-74
2021/01/09 01:45:16;;;;;;;1.02;0.90;;;22.70;20.20;25.80;93750.00;;;;10378703;28;64717;-73
2021/01/09 01:50:17;;;;;;;1.05;0.90;;;22.70;20.20;25.80;93752.00;;;;10379066;28;54294;-73
2021/01/09 01:55:18;;;;;;;1.33;1.05;;;22.70;20.20;25.70;93756.00;;;;10394092;28;74012;-73
2021/01/09 02:00:24;;;;;;;1.30;0.98;;;22.70;20.20;25.70;93766.00;;;;10374003;28;47054;-74
2021/01/09 02:05:29;;;;;;;1.02;0.90;;;22.70;20.20;25.80;93766.00;;;;10389909;28;48270;-74
2021/01/09 02:10:30;;;;;;;1.27;0.98;;;22.70;20.10;25.70;93756.00;;;;10376574;28;57442;-73
2021/01/09 02:15:32;;;;;;;1.02;0.90;;;22.70;20.10;25.70;93769.00;;;;10377049;28;74776;-73
2021/01/09 02:20:35;;;;;;;1.65;0.93;;;22.70;20.10;25.70;93770.00;;;;10378408;28;47448;-73
2021/01/09 02:25:36;;;;;;;1.33;0.80;;;22.70;20.10;25.70;93767.00;;;;10378380;28;47163;-73
2021/01/09 02:30:40;;;;;;;1.00;0.73;;;22.70;20.00;25.70;93770.00;;;;10377028;28;77151;-73
2021/01/09 02:35:43;;;;;;;0.90;0.63;;;22.70;20.00;25.70;93760.00;;;;10377895;28;46968;-74
2021/01/09 02:40:44;;;;;;;1.60;0.90;;;22.70;20.00;25.70;93767.00;;;;10393595;28;74327;-73
2021/01/09 02:45:45;;;;;;;0.98;0.80;;;22.70;20.00;25.70;93759.00;;;;10394222;28;45966;-73
2021/01/09 02:50:46;;;;;;;1.00;0.60;;;22.60;19.90;25.70;93760.00;;;;10376988;28;75138;-73
2021/01/09 02:55:46;;;;;;;0.63;0.60;;;22.70;20.00;25.70;93761.00;;;;10392980;28;64032;-73
2021/01/09 03:00:47;;;;;;;0.63;0.60;;;22.60;19.90;25.70;93769.00;;;;10375973;28;73420;-73
2021/01/09 03:05:48;;;;;;;0.60;0.60;;;22.60;19.90;25.70;93755.00;;;;10393418;28;52670;-73
2021/01/09 03:10:49;;;;;;;0.80;0.60;;;22.60;19.90;25.70;93750.00;;;;10376374;28;73988;-74
2021/01/09 03:15:50;;;;;;;0.57;0.50;;;22.60;19.90;25.70;93750.00;;;;10393257;28;46129;-73
2021/01/09 03:20:51;;;;;;;0.57;0.40;;;22.60;19.90;25.70;93756.00;;;;10393419;28;45415;-73
2021/01/09 03:25:52;;;;;;;0.70;0.60;;;22.60;19.90;25.70;93767.00;;;;10375696;28;75043;-74
2021/01/09 03:30:53;;;;;;;0.60;0.57;;;22.70;20.00;25.70;93766.00;;;;10392553;28;61978;-74
2021/01/09 03:35:53;;;;;;;0.57;0.50;;;22.60;19.90;25.70;93770.00;;;;10375207;28;54862;-74
2021/01/09 03:40:54;;;;;;;0.50;0.43;;;22.60;20.00;25.70;93757.00;;;;10374421;28;62507;-73
2021/01/09 03:45:55;;;;;;;0.55;0.40;;;22.60;20.00;25.70;93754.00;;;;10391501;28;74340;-73
2021/01/09 03:50:55;;;;;;;0.32;0.30;;;22.60;20.00;25.70;93751.00;;;;10392480;28;59975;-73
2021/01/09 03:55:56;;;;;;;0.95;0.40;;;22.60;20.10;25.70;93747.00;;;;10391337;28;53870;-73
2021/01/09 04:00:57;;;;;;;0.85;0.50;;;22.60;20.00;25.60;93737.00;;;;10391501;28;56225;-73
2021/01/09 04:05:57;;;;;;;0.60;0.40;;;22.60;19.90;25.70;93736.00;;;;10374255;28;53695;-73
2021/01/09 04:10:58;;;;;;;0.38;0.38;;;22.60;19.90;25.70;93728.00;;;;10372651;28;74994;-73
2021/01/09 04:16:02;;;;;;;0.40;0.40;;;22.60;19.90;25.70;93723.00;;;;10373693;28;48066;-72
2021/01/09 04:21:04;;;;;;;0.90;0.30;;;22.60;19.90;25.60;93711.00;;;;10390285;28;45680;-73
2021/01/09 04:26:04;;;;;;;0.60;0.50;;;22.60;19.90;25.60;93721.00;;;;10375423;28;55488;-74
2021/01/09 04:31:05;;;;;;;0.45;0.32;;;22.60;19.90;25.60;93738.00;;;;10396865;28;74359;-73
2021/01/09 04:36:06;;;;;;;0.50;0.40;;;22.60;19.90;25.60;93726.00;;;;10397937;28;54755;-73
2021/01/09 04:41:07;;;;;;;0.60;0.40;;;22.70;20.00;25.60;93727.00;;;;10398463;28;45894;-73
2021/01/09 04:46:08;;;;;;;0.38;0.30;;;22.70;20.00;25.70;93738.00;;;;10397414;28;75242;-73
2021/01/09 04:51:09;;;;;;;0.32;0.30;;;22.70;20.00;25.70;93730.00;;;;10379872;28;73598;-73
2021/01/09 04:56:11;;;;;;;0.50;0.38;;;22.70;20.00;25.70;93734.00;;;;10396997;28;46493;-73
2021/01/09 05:01:13;;;;;;;0.45;0.40;;;22.70;20.50;25.70;93740.00;;;;10396283;28;75463;-73
2021/01/09 05:06:20;;;;;;;0.70;0.60;;;22.70;20.00;25.70;93754.00;;;;10397562;28;47454;-73
2021/01/09 05:11:21;;;;;;;0.30;0.30;;;22.70;20.00;25.70;93728.00;;;;10397602;28;46528;-73
2021/01/09 05:16:22;;;;;;;0.40;0.38;;;22.70;20.00;25.70;93749.00;;;;10396722;28;45670;-73
2021/01/09 05:21:24;;;;;;;0.47;0.40;;;22.70;19.90;25.70;93749.00;;;;10377418;28;74406;-74
2021/01/09 05:26:25;;;;;;;0.38;0.30;;;22.70;19.90;25.70;93755.00;;;;10377482;28;56895;-73
2021/01/09 05:31:28;;;;;;;0.45;0.40;;;22.70;19.90;25.70;93752.00;;;;10394048;28;65653;-73
2021/01/09 05:36:29;;;;;;;0.30;0.28;;;22.70;19.90;25.70;93752.00;;;;10377668;28;46881;-73
2021/01/09 05:41:30;;;;;;;0.25;0.25;;;22.80;19.90;25.70;93738.00;;;;10377688;28;54404;-72
2021/01/09 05:46:34;;;;;;;0.63;0.40;;;22.70;19.90;25.70;93753.00;;;;10394159;28;45450;-73
2021/01/09 05:51:40;;;;;;;0.25;0.20;;;22.80;19.90;25.80;93749.00;;;;10377605;28;48245;-73
2021/01/09 05:56:41;;;;;;;0.32;0.32;;;22.80;19.90;25.80;93746.00;;;;10393818;28;45574;-73
2021/01/09 06:01:44;;;;;;;0.22;0.22;;;22.70;19.90;25.80;93744.00;;;;10375991;28;73184;-73
2021/01/09 06:06:57;;;;;;;0.30;0.30;;;22.70;19.90;25.80;93750.00;;;;10377954;28;75871;-71
2021/01/09 06:12:04;;;;;;;0.30;0.30;;;22.70;19.90;25.80;93746.00;;;;10376461;28;47146;-73
2021/01/09 06:17:05;;;;;;;0.50;0.43;;;22.70;19.80;25.70;93767.00;;;;10393102;28;50526;-73
2021/01/09 06:22:06;;;;;;;0.73;0.40;;;22.70;19.80;25.80;93752.00;;;;10392891;28;52448;-73
2021/01/09 06:27:21;;;;;;;0.47;0.47;;;22.70;19.80;25.80;93750.00;;;;10375463;28;75138;-73
2021/01/09 06:32:39;;;;;;;0.43;0.43;;;22.80;19.70;25.80;93774.00;;;;10393055;28;45337;-73
2021/01/09 06:37:40;;;;;;;0.60;0.60;;;22.70;19.70;25.70;93763.00;;;;10393807;28;46778;-73
2021/01/09 06:42:42;;;;;;;0.75;0.70;;;22.70;19.70;25.80;93758.00;;;;10377780;28;47904;-73
2021/01/09 06:47:59;;;;;;;0.77;0.73;;;22.70;19.70;25.80;93758.00;;;;10394193;28;62186;-74
2021/01/09 06:53:01;;;;;;;0.70;0.70;;;22.80;19.60;25.80;93776.00;;;;10393384;28;45261;-74
2021/01/09 06:58:06;;;;;;;0.88;0.70;;;22.80;19.60;25.80;93774.00;;;;10377675;28;47523;-73
2021/01/09 07:03:23;;;;;;;0.70;0.70;;;22.80;19.60;25.80;93778.00;;;;10392741;28;45397;-73
2021/01/09 07:08:29;;;;;;;0.82;0.80;;;22.80;19.60;25.80;93771.00;;;;10392303;28;45668;-72
2021/01/09 07:13:32;;;;;;;1.00;0.77;;;22.80;19.50;25.80;93765.00;;;;10390523;28;46290;-72
2021/01/09 07:18:37;;;;;;;1.30;0.90;;;22.70;19.50;25.80;93771.00;;;;10373978;28;50596;-73
2021/01/09 07:23:39;;;;;;;1.02;0.90;;;22.80;19.40;25.80;93782.00;;;;10390435;28;45584;-72
2021/01/09 07:28:41;;;;;;;1.27;0.90;;;22.70;19.40;25.80;93777.00;;;;10373430;28;75416;-73
2021/01/09 07:33:45;;;;;;;1.00;0.80;;;22.80;19.40;25.80;93783.00;;;;10374365;28;48206;-73
2021/01/09 07:38:46;;;;;;;0.88;0.70;;;22.80;19.30;25.70;93791.00;;;;10375574;28;47282;-73
2021/01/09 07:43:47;;;;;;;1.10;0.82;;;22.80;19.30;25.80;93795.00;;;;10391883;28;56294;-73
2021/01/09 07:48:49;;;;;;;0.82;0.80;;;22.80;19.30;25.80;93799.00;;;;10393467;28;45288;-73
2021/01/09 07:53:49;;;;;;;0.90;0.80;;;22.70;19.30;25.80;93799.00;;;;10421758;22;47090;-68
2021/01/09 07:58:50;;;;;;;1.17;0.80;;;22.80;19.20;25.80;93807.00;;;;10472439;28;45295;-69
2021/01/09 08:03:52;;;;;;;1.00;0.80;;;22.80;19.20;25.80;93801.00;;;;10477883;28;75353;-68
2021/01/09 08:08:53;;;;;;;1.10;0.90;;;22.80;19.20;25.80;93814.00;;;;10477875;28;74443;-67
2021/01/09 08:14:01;;;;;;;0.82;0.70;;;22.80;19.20;25.80;93825.00;;;;10478144;28;47018;-69
2021/01/09 08:19:23;;;;;;;1.15;0.80;;;22.80;19.20;25.90;93828.00;;;;10479316;28;48326;-68
2021/01/09 08:24:27;;;;;;;2.65;0.90;;;22.80;19.20;25.80;93833.00;;;;10479769;28;45568;-69
2021/01/09 08:29:28;;;;;;;1.33;0.82;;;22.80;19.20;25.80;93833.00;;;;10477625;28;75555;-68
2021/01/09 08:34:29;;;;;;;1.05;0.80;;;22.80;19.20;25.80;93855.00;;;;10478169;28;54424;-69
2021/01/09 08:43:37;;;;;;;5.03;1.23;;;22.80;28.40;24.50;93833.00;;;;10510271;28;45309;-68
2021/01/09 08:53:17;;;;;;;2.35;0.80;;;22.00;31.10;23.70;93836.00;;;;10597431;27;45371;-74
2021/01/09 08:58:18;;;;;;;2.55;0.60;;;21.70;32.00;23.90;93836.00;;;;10537709;27;50748;-73
2021/01/09 09:03:20;;;;;;;2.90;0.90;;;21.70;31.80;24.00;93829.00;;;;10554227;27;47120;-72
2021/01/09 09:08:24;;;;;;;3.80;0.70;;;21.70;31.60;24.10;93817.00;;;;10551210;27;73515;-72
2021/01/09 09:13:25;;;;;;;1.70;0.68;;;21.70;31.50;24.10;93828.00;;;;10551576;27;57251;-73
2021/01/09 09:18:32;;;;;;;2.05;0.70;;;21.80;31.50;24.00;93825.00;;;;10552717;27;47082;-72
2021/01/09 09:23:33;;;;;;;1.90;0.80;;;21.60;29.00;24.00;93817.00;;;;10552915;27;47049;-71
2021/01/09 09:28:51;;;;;;;2.72;0.60;;;21.70;31.00;24.10;93816.00;;;;10552063;27;45312;-74
2021/01/09 09:34:16;;;;;;;2.45;0.73;;;21.70;31.10;24.10;93826.00;;;;10551036;27;47476;-72
2021/01/09 09:39:22;;;;;;;3.35;0.82;;;21.70;31.00;24.20;93843.00;;;;10551496;27;47251;-72
2021/01/09 09:44:36;;;;;;;1.15;0.65;;;21.80;30.80;24.20;93840.00;;;;10552891;27;48344;-76
2021/01/09 09:49:38;;;;;;;2.03;0.63;;;21.80;31.20;24.20;93831.00;;;;10552849;27;46964;-76
2021/01/09 09:54:39;;;;;;;1.67;0.50;;;21.80;30.80;24.20;93846.00;;;;10552777;27;47619;-76
2021/01/09 09:59:39;;;;;;;2.97;0.70;;;21.80;30.50;24.20;93840.00;;;;10551675;27;74679;-77
2021/01/09 10:04:44;;;;;;;0.82;0.60;;;21.80;30.30;24.20;93836.00;;;;10522383;27;74322;-76
2021/01/09 10:09:45;;;;;;;1.30;0.60;;;21.80;30.10;24.20;93824.00;;;;10526459;28;47505;-76
2021/01/09 10:14:45;;;;;;;3.65;0.70;;;21.90;30.00;24.20;93819.00;;;;10525272;28;74447;-80
2021/01/09 10:19:46;;;;;;;1.67;0.50;;;21.80;29.00;24.20;93799.00;;;;10524361;27;53385;-79
2021/01/09 10:24:47;;;;;;;2.40;0.98;;;21.80;29.40;24.20;93803.00;;;;10523605;28;74921;-79
2021/01/09 10:29:47;;;;;;;0.95;0.60;;;21.90;29.60;24.20;93805.00;;;;10523005;28;74150;-78
2021/01/09 10:34:48;;;;;;;1.48;0.80;;;21.90;29.40;24.30;93793.00;;;;10522295;28;73096;-78
2021/01/09 10:39:49;;;;;;;2.38;0.90;;;21.90;29.20;24.30;93774.00;;;;10522174;28;74879;-78
2021/01/09 10:44:49;;;;;;;2.05;0.73;;;21.90;28.70;24.30;93766.00;;;;10522395;28;66536;-78
2021/01/09 10:49:50;;;;;;;2.05;0.70;;;22.00;28.60;24.40;93786.00;;;;10522644;28;75249;-79
2021/01/09 10:54:51;;;;;;;1.25;0.52;;;22.00;28.40;24.40;93779.00;;;;10524078;27;53647;-78
2021/01/09 10:59:51;;;;;;;2.90;0.90;;;22.00;28.40;24.40;93782.00;;;;10521686;27;76358;-77
2021/01/09 11:04:52;;;;;;;1.27;0.70;;;22.00;28.50;24.50;93770.00;;;;10521372;28;74641;-78
2021/01/09 11:09:53;;;;;;;1.40;0.68;;;22.10;28.70;24.50;93774.00;;;;10522948;28;46097;-78
2021/01/09 11:14:53;;;;;;;1.08;0.60;;;22.10;28.80;24.50;93763.00;;;;10525311;27;47133;-78
2021/01/09 11:19:54;;;;;;;1.27;0.70;;;22.10;29.20;24.60;93775.00;;;;10527569;28;45609;-76
2021/01/09 11:24:55;;;;;;;1.00;0.80;;;22.10;29.70;24.60;93770.00;;;;10521091;28;74324;-76
2021/01/09 11:29:55;;;;;;;1.58;0.80;;;22.20;30.20;24.60;93758.00;;;;10520169;28;73864;-76
2021/01/09 11:34:56;;;;;;;1.27;0.70;;;22.20;30.60;24.60;93752.00;;;;10526661;28;46021;-78
2021/01/09 11:39:57;;;;;;;1.15;0.80;;;22.20;31.00;24.70;93766.00;;;;10527946;28;75252;-78
2021/01/09 11:44:58;;;;;;;1.80;0.70;;;22.20;31.20;24.70;93757.00;;;;10525893;27;75462;-77
2021/01/09 11:49:58;;;;;;;3.42;0.85;;;22.30;31.30;24.70;93752.00;;;;10520416;28;45459;-75
2021/01/09 11:54:59;;;;;;;2.20;0.70;;;22.30;31.40;24.70;93745.00;;;;10520076;27;48149;-76
2021/01/09 12:00:00;;;;;;;0.77;0.63;;;22.30;31.40;24.80;93746.00;;;;10520841;27;74016;-77
2021/01/09 12:05:01;;;;;;;1.38;0.80;;;22.30;31.20;24.80;93744.00;;;;10522462;27;47530;-77
2021/01/09 12:10:04;;;;;;;1.40;0.80;;;22.40;31.20;24.80;93743.00;;;;10520089;28;73955;-77
2021/01/09 12:15:07;;;;;;;1.08;0.70;;;22.40;31.00;24.80;93729.00;;;;10523406;27;47366;-76
2021/01/09 12:20:08;;;;;;;1.45;0.85;;;22.50;31.00;24.80;93727.00;;;;10519732;28;46983;-77
2021/01/09 12:25:10;;;;;;;1.08;0.60;;;22.50;31.00;24.90;93732.00;;;;10518652;27;53864;-77
2021/01/09 12:30:13;;;;;;;1.88;0.73;;;22.50;30.80;24.90;93725.00;;;;10518827;28;58288;-76
2021/01/09 12:35:14;;;;;;;1.15;0.60;;;22.50;30.80;24.90;93721.00;;;;10519399;27;47317;-77
2021/01/09 12:40:15;;;;;;;1.17;0.60;;;22.50;30.80;24.90;93724.00;;;;10519228;27;47506;-77
2021/01/09 12:45:15;;;;;;;1.33;0.70;;;22.60;30.70;25.00;93724.00;;;;10518245;27;66983;-76
2021/01/09 12:50:16;;;;;;;1.23;0.63;;;22.60;31.10;25.00;93727.00;;;;10516760;28;74394;-76
2021/01/09 12:55:17;;;;;;;2.20;0.70;;;22.60;30.40;25.00;93714.00;;;;10522054;27;53244;-80
2021/01/09 13:00:18;;;;;;;1.35;0.70;;;22.60;30.30;25.00;93710.00;;;;10526533;28;55528;-75
2021/01/09 13:05:19;;;;;;;0.70;0.60;;;22.60;30.10;25.00;93710.00;;;;10520320;28;47022;-75
2021/01/09 13:10:21;;;;;;;1.15;0.60;;;22.60;29.80;25.00;93727.00;;;;10517033;28;47151;-75
2021/01/09 13:15:22;;;;;;;2.20;0.65;;;22.60;29.70;25.00;93717.00;;;;10516654;28;45525;-75
2021/01/09 13:20:22;;;;;;;2.17;0.70;;;22.60;29.60;25.00;93692.00;;;;10514306;28;69858;-75
2021/01/09 13:25:23;;;;;;;1.90;0.70;;;22.70;29.30;25.00;93687.00;;;;10514938;27;58819;-75
2021/01/09 13:30:24;;;;;;;1.30;0.65;;;22.60;29.10;24.90;93703.00;;;;10513509;28;74779;-75
2021/01/09 13:35:25;;;;;;;1.10;0.60;;;22.60;29.10;24.90;93707.00;;;;10514861;28;46215;-75
2021/01/09 13:40:26;;;;;;;2.90;0.80;;;22.60;29.10;24.90;93718.00;;;;10520651;28;75621;-75
2021/01/09 13:45:26;;;;;;;1.67;0.70;;;22.60;29.00;24.90;93716.00;;;;10521323;27;58995;-75
2021/01/09 13:50:27;;;;;;;0.90;0.60;;;22.60;29.10;24.90;93714.00;;;;10520421;28;74586;-75
2021/01/09 13:55:28;;;;;;;0.98;0.60;;;22.60;29.10;24.90;93711.00;;;;10521452;22;46936;-75
2021/01/09 14:00:28;;;;;;;1.52;0.88;;;22.60;29.10;24.90;93727.00;;;;10462049;28;53202;-75
2021/01/09 14:05:29;;;;;;;1.20;0.60;;;22.60;29.10;24.90;93737.00;;;;10495870;28;75312;-74
2021/01/09 14:10:30;;;;;;;0.85;0.50;;;22.50;29.10;24.90;93736.00;;;;10522385;27;63819;-74
2021/01/09 14:15:30;;;;;;;0.82;0.60;;;22.50;29.10;24.80;93742.00;;;;10522871;27;60437;-75
2021/01/09 14:20:31;;;;;;;0.63;0.60;;;22.50;29.10;24.80;93738.00;;;;10522187;27;75522;-74
2021/01/09 14:25:32;;;;;;;1.08;0.68;;;22.50;29.10;24.80;93727.00;;;;10497320;28;48125;-75
2021/01/09 14:30:34;;;;;;;0.80;0.70;;;22.50;29.20;24.80;93738.00;;;;10480717;28;47253;-75
2021/01/09 14:35:34;;;;;;;1.00;0.60;;;22.50;29.10;24.80;93758.00;;;;10482416;28;45250;-75
2021/01/09 14:40:36;;;;;;;1.67;0.60;;;22.50;29.20;24.80;93759.00;;;;10496515;28;75262;-74
2021/01/09 14:45:37;;;;;;;1.45;0.70;;;22.50;29.20;24.80;93765.00;;;;10480201;28;47394;-74
2021/01/09 14:50:38;;;;;;;1.40;0.70;;;22.50;29.20;24.80;93755.00;;;;10495750;27;74600;-74
2021/01/09 14:55:43;;;;;;;0.70;0.60;;;22.50;29.20;24.80;93761.00;;;;10495488;28;75466;-74
2021/01/09 15:00:44;;;;;;;2.55;0.80;;;22.40;29.10;24.80;93772.00;;;;10495386;28;74981;-74
2021/01/09 15:05:45;;;;;;;1.10;0.57;;;22.50;29.30;24.80;93776.00;;;;10479277;28;47553;-74
2021/01/09 15:10:45;;;;;;;1.05;0.75;;;22.40;29.50;24.70;93766.00;;;;10477110;28;74418;-74
2021/01/09 15:15:46;;;;;;;0.88;0.63;;;22.40;29.60;24.80;93781.00;;;;10476356;28;74076;-75
2021/01/09 15:20:49;;;;;;;0.90;0.70;;;22.40;29.60;24.80;93777.00;;;;10493927;28;54223;-74
2021/01/09 15:25:50;;;;;;;1.10;0.70;;;22.40;29.60;24.70;93785.00;;;;10476866;28;46075;-74
2021/01/09 15:30:51;;;;;;;3.55;0.70;;;22.50;29.70;24.70;93785.00;;;;10494816;28;65431;-74
2021/01/09 15:35:51;;;;;;;2.17;0.88;;;22.40;29.60;24.70;93782.00;;;;10495328;28;45444;-74
2021/01/09 15:40:52;;;;;;;2.45;1.00;;;22.40;29.50;24.70;93788.00;;;;10494021;28;74516;-74
2021/01/09 15:46:02;;;;;;;1.95;1.00;;;22.40;29.50;24.80;93792.00;;;;10476584;28;70339;-73
2021/01/09 15:51:05;;;;;;;1.35;0.93;;;22.40;29.40;24.80;93789.00;;;;10477594;28;75553;-73
2021/01/09 15:56:11;;;;;;;1.35;1.00;;;22.40;29.40;24.80;93795.00;;;;10476514;28;56656;-73
2021/01/09 16:01:13;;;;;;;;;;;22.40;29.40;25.00;93804.00;;;;10476980;28;47444;-73
2021/01/09 16:06:14;;;;;;;2.92;1.65;;;22.40;29.30;24.80;93810.00;;;;10459887;28;47305;-74
2021/01/09 16:11:21;;;;;;;3.85;2.10;;;22.40;29.40;24.80;93814.00;;;;10476209;28;47232;-73
2021/01/09 16:16:29;;;;;;;4.15;2.60;;;22.40;29.30;24.80;93817.00;;;;10493135;28;45677;-74
2021/01/09 16:21:30;;;;;;;4.30;2.67;;;22.40;29.30;24.80;93814.00;;;;10476214;28;52361;-74
2021/01/09 16:26:30;;;;;;;4.05;2.67;;;22.40;29.30;24.80;93813.00;;;;10476399;28;47542;-74
2021/01/09 16:31:43;;;;;;;3.22;2.15;;;22.40;29.20;24.80;93804.00;;;;10475962;28;47047;-74
2021/01/09 16:36:45;;;;;;;3.60;2.20;;;22.40;29.20;24.80;93812.00;;;;10492786;28;45511;-73
2021/01/09 16:41:46;;;;;;;3.42;2.33;;;22.40;29.20;24.80;93818.00;;;;10493130;28;54911;-74
2021/01/09 16:46:47;;;;;;;4.05;1.92;;;22.40;29.20;24.80;93820.00;;;;10493525;28;45543;-74
2021/01/09 16:51:47;;;;;;;3.63;1.88;;;22.40;29.10;24.80;93819.00;;;;10491765;28;73363;-74
2021/01/09 16:56:48;;;;;;;2.97;2.08;;;22.40;29.10;24.80;93814.00;;;;10475575;28;75467;-74
2021/01/09 17:01:49;;;;;;;2.95;1.92;;;22.40;29.10;24.80;93836.00;;;;10475645;28;49355;-74
2021/01/09 17:06:49;;;;;;;2.60;1.92;;;22.40;29.00;24.80;93841.00;;;;10475548;28;47125;-74
2021/01/09 17:11:50;;;;;;;2.67;1.92;;;22.40;29.10;24.80;93848.00;;;;10476237;28;47129;-74
2021/01/09 17:16:51;;;;;;;3.13;2.08;;;22.40;29.10;24.80;93847.00;;;;10482314;28;47359;-74
2021/01/09 17:21:51;;;;;;;2.53;1.80;;;22.40;29.10;24.80;93850.00;;;;10481237;28;75477;-74
2021/01/09 17:26:52;;;;;;;2.47;1.80;;;22.40;29.70;24.80;93834.00;;;;10482239;28;47344;-74
2021/01/09 17:31:53;;;;;;;2.53;1.55;;;22.40;29.10;24.70;93846.00;;;;10480831;28;73862;-74
2021/01/09 17:36:57;;;;;;;3.55;1.77;;;22.30;29.00;24.80;93848.00;;;;10481889;28;46958;-74
2021/01/09 17:42:00;;;;;;;2.00;1.58;;;22.40;29.00;24.80;93853.00;;;;10501598;28;47115;-74
2021/01/09 17:47:01;;;;;;;2.10;1.60;;;22.40;29.00;24.80;93856.00;;;;10523588;28;47223;-74
2021/01/09 17:52:02;;;;;;;2.33;1.50;;;22.40;29.00;24.80;93845.00;;;;10523509;28;47815;-74
2021/01/09 17:57:04;;;;;;;2.28;1.67;;;22.40;29.00;24.80;93845.00;;;;10522808;28;46331;-74
2021/01/09 18:02:04;;;;;;;2.05;1.50;;;22.40;28.90;24.70;93840.00;;;;10523607;27;47094;-74
2021/01/09 18:07:06;;;;;;;1.98;1.58;;;22.40;28.90;24.80;93840.00;;;;10522357;28;74430;-74
2021/01/09 18:12:08;;;;;;;1.65;1.33;;;22.40;28.90;24.80;93845.00;;;;10523018;27;47235;-74
2021/01/09 18:17:09;;;;;;;1.90;1.38;;;22.40;28.90;24.70;93845.00;;;;10523116;28;45428;-74
2021/01/09 18:22:09;;;;;;;1.98;1.23;;;22.40;28.90;24.80;93845.00;;;;10522239;27;47878;-74
2021/01/09 18:27:10;;;;;;;2.42;1.50;;;22.40;28.90;24.80;93849.00;;;;10521292;28;75130;-74
